Sunday, November 19, 2017, 11:19 PM EST
Back to Local

KLWM, Lawrence Municipal Airport

Location: North Andover, MA, United States Lat: 42.717
Local Time: 11:19 PM EST ( 4:19 GMT) Lon: -71.133
Time Zone: US/Eastern Elev: 147 ft

Show me the last for .
Show Decoded

2017-11-19 22:54 METAR KLWM 200354Z AUTO 26005KT 10SM CLR 03/M06 A2963 RMK AO2 SLP034 T00281056 =
2017-11-19 21:54 METAR KLWM 200254Z 27008KT 10SM BKN049 04/M06 A2962 RMK AO2 SLP030 T00391061
                 51030 =
2017-11-19 20:54 METAR KLWM 200154Z 26009G18KT 10SM SCT045 04/M06 A2960 RMK AO2 SLP025 T00441056
                 =
2017-11-19 19:54 METAR KLWM 200054Z 27011G21KT 10SM SCT046 05/M05 A2957 RMK AO2 PK WND 28030/0038
                 PRESRR SLP015 T00501050 =
2017-11-19 18:54 METAR KLWM 192354Z 27013G21KT 10SM BKN043 05/M04 A2953 RMK AO2 PK WND 29027/2327
                 SLP000 T00501039 10106 20050 51052 =
2017-11-19 17:54 METAR KLWM 192254Z 28007KT 10SM SCT044 06/M03 A2949 RMK AO2 PK WND 29026/2217
                 SLP985 T00561033 =
2017-11-19 16:54 METAR KLWM 192154Z 29013G20KT 10SM CLR 07/M03 A2944 RMK AO2 PK WND 27034/2113
                 PRESRR SLP968 T00671028 =
2017-11-19 15:54 METAR KLWM 192054Z 27018G27KT 10SM CLR 08/M02 A2938 RMK AO2 PK WND 25033/2022
                 PRESRR SLP948 T00781017 53058 =
2017-11-19 14:54 METAR KLWM 191954Z 26014G29KT 10SM OVC042 09/M01 A2931 RMK AO2 PK WND 26034/1909
                 PRESRR SLP927 T00891006 =
2017-11-19 13:54 METAR KLWM 191854Z 27012G26KT 10SM SCT041 11/01 A2925 RMK AO2 PK WND 26032/1815
                 SLP906 T01060011 =
2017-11-19 12:54 METAR KLWM 191754Z 28021G38KT 10SM SCT070 11/02 A2920 RMK AO2 PK WND 27038/1751
                 SLP890 60010 T01060017 10161 20100 53030 =
2017-11-19 12:07 METAR KLWM 191707Z 25015G33KT 10SM FEW016 BKN055 OVC075 10/04 A2918 RMK AO2 PK
                 WND 26033/1701 T01000044 =
2017-11-19 11:54 METAR KLWM 191654Z 26019G29KT 10SM SCT017 BKN025 OVC050 11/06 A2917 RMK AO2 PK
                 WND 23043/1618 WSHFT 1614 RAE40 SLP879 P0001 T01060056 =
2017-11-19 11:45 METAR KLWM 191645Z 26013G20KT 10SM SCT016 BKN027 OVC050 11/07 A2917 RMK AO2 PK
                 WND 23043/1618 WSHFT 1614 RAE40 P0001 T01110072 =
2017-11-19 11:30 METAR KLWM 191630Z 28016G28KT 9SM -RA FEW018 BKN032 OVC070 12/08 A2914 RMK AO2
                 PK WND 23043/1618 WSHFT 1614 P0001 T01220083 =
2017-11-19 10:58 METAR KLWM 191558Z 21011KT 9SM -RA SCT009 BKN015 OVC021 16/13 A2911 RMK AO2
                 P0000 T01560133 =
2017-11-19 10:54 METAR KLWM 191554Z 23009G20KT 6SM -RA BR BKN009 BKN015 OVC021 16/13 A2911 RMK
                 AO2 RAB00 SLP857 P0005 T01560133 =
2017-11-19 10:50 METAR KLWM 191550Z 25010G20KT 4SM RA BR SCT009 OVC015 16/13 A2911 RMK AO2 RAB00
                 P0005 =
2017-11-19 10:49 METAR KLWM 191549Z 25011G20KT 4SM RA BR SCT009 BKN013 OVC021 16/13 A2911 RMK AO2
                 RAB00 P0005 =
2017-11-19 09:54 METAR KLWM 191454Z 19008KT 10SM SCT015 BKN020 OVC047 16/13 A2914 RMK AO2
                 RAB1357E22 SLP865 P0000 60004 T01610133 55014 =
2017-11-19 09:51 METAR KLWM 191451Z 19008KT 10SM SCT015 BKN028 OVC049 16/13 A2913 RMK AO2
                 RAB1357E22 P0000 =
2017-11-19 08:57 METAR KLWM 191357Z AUTO 19007KT 160V220 10SM -RA SCT015 BKN041 OVC070 16/13
                 A2916 RMK AO2 RAB57 P0000 T01610133 =
2017-11-19 08:54 METAR KLWM 191354Z AUTO 19008KT 10SM BKN013 BKN022 OVC070 16/13 A2916 RMK AO2
                 RAE1255B11E53 SLP872 P0000 T01610133 =
2017-11-19 08:43 METAR KLWM 191343Z AUTO 19011G16KT 10SM -RA BKN016 OVC021 16/13 A2916 RMK AO2
                 RAE1255B11 P0000 T01610133 =
2017-11-19 08:25 METAR KLWM 191325Z AUTO 18007KT 10SM BKN014 OVC018 16/13 A2917 RMK AO2
                 RAE1255B11E25 P0000 T01560133 =
2017-11-19 08:18 METAR KLWM 191318Z AUTO 18007KT 10SM -RA FEW009 OVC016 16/13 A2916 RMK AO2
                 RAE1255B11 P0000 T01560133 =
2017-11-19 08:10 METAR KLWM 191310Z AUTO 18006KT 10SM BKN014 OVC020 16/13 A2917 RMK AO2 RAE1255
                 P0000 T01560133 =
2017-11-19 07:54 METAR KLWM 191254Z AUTO 20009KT 10SM -RA BKN015 OVC035 16/13 A2918 RMK AO2
                 SLP879 P0004 T01560133 =
2017-11-19 07:50 METAR KLWM 191250Z AUTO 20007KT 10SM -RA BKN015 OVC035 16/13 A2917 RMK AO2 P0004
                 =
2017-11-19 07:22 METAR KLWM 191222Z AUTO 20011G18KT 10SM -RA BKN012 BKN038 OVC080 16/13 A2920 RMK
                 AO2 P0002 T01560133 =
2017-11-19 07:06 METAR KLWM 191206Z AUTO 18008G18KT 7SM -RA SCT012 BKN037 OVC080 16/13 A2919 RMK
                 AO2 P0002 T01560133 =
2017-11-19 06:54 METAR KLWM 191154Z AUTO 20011G18KT 10SM -RA BKN012 BKN037 OVC080 16/13 A2920 RMK
                 AO2 SLP890 P0001 60007 70014 T01560133 10156 20106 55020 =
2017-11-19 06:51 METAR KLWM 191151Z AUTO 19010G18KT 10SM -RA SCT010 BKN015 OVC080 16/13 A2920 RMK
                 AO2 P0001 =
2017-11-19 06:34 METAR KLWM 191134Z AUTO 19009G18KT 150V230 9SM -RA BKN014 OVC085 16/13 A2919 RMK
                 AO2 P0001 T01560128 =
2017-11-19 05:54 METAR KLWM 191054Z AUTO 19007G15KT 10SM -RA SCT015 BKN075 OVC095 15/13 A2922 RMK
                 AO2 SLP893 P0004 T01500128 =
2017-11-19 04:54 METAR KLWM 190954Z AUTO 20006KT 8SM -RA FEW036 SCT048 OVC090 14/12 A2926 RMK AO2
                 RAB11 SLP910 P0002 T01440122 =
2017-11-19 03:54 METAR KLWM 190854Z AUTO 18007KT 10SM SCT026 OVC030 14/12 A2930 RMK AO2 SLP922
                 60000 T01440117 58032 =
2017-11-19 02:54 METAR KLWM 190754Z AUTO 17005KT 10SM FEW008 BKN024 OVC032 13/11 A2934 RMK AO2
                 RAB12E26 SLP936 P0000 T01330106 =
2017-11-19 02:35 METAR KLWM 190735Z AUTO 17005KT 10SM SCT008 BKN024 OVC034 12/11 A2936 RMK AO2
                 RAB12E26 P0000 T01220106 =
2017-11-19 01:54 METAR KLWM 190654Z AUTO 14003KT 10SM OVC009 11/09 A2939 RMK AO2 RAE46 CIG
                 006V013 SLP953 P0000 T01110094 =
2017-11-19 01:51 METAR KLWM 190651Z AUTO VRB04KT 10SM OVC009 11/09 A2939 RMK AO2 RAE46 CIG
                 006V013 P0000 =
2017-11-19 01:26 METAR KLWM 190626Z AUTO 00000KT 10SM -RA OVC013 11/09 A2942 RMK AO2 P0000
                 T01060089 =
2017-11-19 00:54 METAR KLWM 190554Z AUTO 00000KT 9SM -RA BKN017 OVC090 11/09 A2943 RMK AO2 SLP967
                 P0002 60007 T01060089 10106 20089 56026 =
2017-11-19 00:51 METAR KLWM 190551Z AUTO VRB03KT 8SM -RA BKN019 OVC100 11/09 A2943 RMK AO2 P0002
                 =
2017-11-18 23:54 METAR KLWM 190454Z AUTO 20004KT 9SM -RA FEW020 OVC050 11/08 A2949 RMK AO2 RAB24
                 SLP986 P0000 T01060083 401061039 =

Support USWX by starting your Amazon purchase here.